Flight Track Log - Related Links

Times and Time Zones

All times are in EDT time to prevent confusion due to time zone crossing. See the AWI3680 flight status page for this flight to view local times or setup timezone preferences in your user account.

Time Position Orientation Groundspeed Altitude Reporting Facility
EDT Latitude Longitude Course Direction KTS MPH feet Rate Location/Type
Sun 07:33:49 PM 39.8667 -75.2833 37° Northeast 147 169 1,000  Level Philadelphia TRACON
Sun 07:35:19 PM 39.7833 -75.3333 205° Southwest 232 267 3,900 2,000 Climbing Philadelphia TRACON
Sun 07:36:00 PM 39.7999 -74.7829 105° East  Level FlightAware Approximate
Sun 07:36:19 PM 39.7333 -75.3333 180° South 270 311 6,000  Level Philadelphia TRACON
Sun 07:37:00 PM 39.8028 -74.6805 37° Northeast  Level FlightAware Approximate
Sun 07:37:19 PM 39.7500 -75.2333 78° East 290 334 8,300  Level Philadelphia TRACON
Sun 07:38:00 PM 39.8745 -74.6089 37° Northeast  Level FlightAware Approximate
Sun 07:38:19 PM 39.7667 -75.1333 78° East 300 345 10,400  Level Philadelphia TRACON
Sun 07:39:00 PM 39.9496 -74.5504 37° Northeast  Level FlightAware Approximate
Sun 07:39:25 PM 39.7833 -75.0167 79° East 325 374 12,000  Level Philadelphia TRACON
Sun 07:41:31 PM 39.7922 -74.7503 87° East 361 415 13,800 1,129 Climbing New York Center
Sun 07:42:31 PM 39.8475 -74.6561 53° Northeast 323 372 15,500 1,587 Climbing New York Center
Sun 07:43:32 PM 39.9247 -74.5847 35° Northeast 316 364 17,000 1,361 Climbing New York Center
Sun 07:44:30 PM 40.0022 -74.5106 36° Northeast 327 376 18,200 1,271 Climbing New York Center
Sun 07:45:30 PM 40.0797 -74.4331 37° Northeast 347 399 19,500 1,140 Climbing New York Center
Sun 07:46:31 PM 40.1592 -74.3586 36° Northeast 347 399 20,500 992 Climbing New York Center
Sun 07:47:31 PM 40.2406 -74.2786 37° Northeast 352 405 21,500 1,050 Climbing New York Center
Sun 07:48:31 PM 40.3181 -74.1981 38° Northeast 352 405 22,600 942 Climbing New York Center
Sun 07:49:32 PM 40.4056 -74.1233 33° Northeast 357 411 23,400 706 Climbing New York Center
Sun 07:50:30 PM 40.4969 -74.0597 28° Northeast 362 417 24,000 180 Climbing New York Center
Sun 07:52:52 PM 40.7339 -73.9108 25° Northeast 393 452 24,000  Level Boston Center
Sun 07:53:52 PM 40.8247 -73.8278 35° Northeast 393 452 24,000 -100 Level Boston Center
Sun 07:54:52 PM 40.9092 -73.7253 43° Northeast 393 452 23,800 -550 Descending Boston Center
Sun 07:55:52 PM 41.0142 -73.6558 27° Northeast 404 465 22,900 -400 Descending Boston Center
Sun 07:56:52 PM 41.1233 -73.5947 23° Northeast 414 476 23,000 -500 Climbing Boston Center
Sun 07:57:52 PM 41.2281 -73.5358 23° Northeast 414 476 21,900 -1,150 Descending Boston Center
Sun 07:58:52 PM 41.3367 -73.4989 14° North 409 471 20,700 -1,350 Descending Boston Center
Sun 07:59:52 PM 41.4492 -73.5036 358° North 403 464 19,200 -1,400 Descending Boston Center
Sun 08:00:52 PM 41.5450 -73.5108 357° North 389 448 17,900 -1,250 Descending Boston Center
Sun 08:01:52 PM 41.6533 -73.5125 359° North 361 415 16,700 -1,250 Descending Boston Center
Sun 08:02:52 PM 41.7408 -73.5139 359° North 341 392 15,400 -1,300 Descending Boston Center
Sun 08:03:52 PM 41.8450 -73.5186 358° North 341 392 14,100 -1,200 Descending Boston Center
Sun 08:04:52 PM 41.9306 -73.5228 358° North 347 399 13,000 -1,200 Descending Boston Center
Sun 08:05:52 PM 42.0306 -73.5217 360° North 336 387 11,700 -1,000 Descending Boston Center
Sun 08:06:52 PM 42.1158 -73.5261 358° North 336 387 11,000 -350 Descending Boston Center
Sun 08:07:52 PM 42.1992 -73.5414 352° North 316 364 11,000 -800 Level Boston Center
Sun 08:08:52 PM 42.2694 -73.5847 335° Northwest 287 330 9,400 -1,727 Descending Boston Center
Sun 08:10:04 PM 42.3422 -73.6256 337° Northwest 263 303 7,200 -2,091 Descending Boston Center
Sun 08:11:04 PM 42.4231 -73.6692 338° Northwest 256 295 4,800 -2,050 Descending Boston Center
Sun 08:12:04 PM 42.4892 -73.7100 336° Northwest 256 295 3,100 -1,100 Descending Boston Center
Sun 08:13:04 PM 42.5514 -73.7422 339° North 250 288 2,600 -550 Descending Boston Center
Sun 08:14:04 PM 42.6050 -73.7772 334° Northwest 245 282 2,000 -600 Descending Boston Center

Login

Don't have an account? Register now (free) for customized features, flight alerts, and more!